sensor_id;sensor_type;location;lat;lon;timestamp;pressure;altitude;pressure_sealevel;temperature;humidity
63343;BME280;49465;57.664;39.686;2022-07-29T00:01:29;100182.16;;;22.68;64.79
63343;BME280;49465;57.664;39.686;2022-07-29T00:04:04;100183.13;;;22.67;65.10
63343;BME280;49465;57.664;39.686;2022-07-29T00:06:34;100186.84;;;22.66;65.15
63343;BME280;49465;57.664;39.686;2022-07-29T00:09:01;100179.81;;;22.65;64.97
63343;BME280;49465;57.664;39.686;2022-07-29T00:11:41;100184.56;;;22.78;65.22
63343;BME280;49465;57.664;39.686;2022-07-29T00:14:13;100184.91;;;22.75;65.07
63343;BME280;49465;57.664;39.686;2022-07-29T00:16:51;100185.31;;;22.86;64.69
63343;BME280;49465;57.664;39.686;2022-07-29T00:19:31;100184.75;;;22.76;64.88
63343;BME280;49465;57.664;39.686;2022-07-29T00:22:19;100186.38;;;22.62;64.99
63343;BME280;49465;57.664;39.686;2022-07-29T00:24:57;100189.78;;;22.71;64.99
63343;BME280;49465;57.664;39.686;2022-07-29T00:27:48;100182.63;;;22.86;65.04
63343;BME280;49465;57.664;39.686;2022-07-29T00:33:13;100190.25;;;22.75;64.98
63343;BME280;49465;57.664;39.686;2022-07-29T00:35:51;100189.44;;;22.74;64.63
63343;BME280;49465;57.664;39.686;2022-07-29T00:38:32;100193.66;;;22.83;64.19
63343;BME280;49465;57.664;39.686;2022-07-29T00:41:06;100194.94;;;22.73;64.99
63343;BME280;49465;57.664;39.686;2022-07-29T00:43:44;100185.25;;;22.57;65.25
63343;BME280;49465;57.664;39.686;2022-07-29T00:46:15;100193.47;;;22.70;64.97
63343;BME280;49465;57.664;39.686;2022-07-29T00:49:10;100184.34;;;22.79;64.19
63343;BME280;49465;57.664;39.686;2022-07-29T00:51:42;100190.50;;;22.65;65.14
63343;BME280;49465;57.664;39.686;2022-07-29T00:54:21;100196.97;;;22.70;65.18
63343;BME280;49465;57.664;39.686;2022-07-29T00:57:00;100202.50;;;22.69;65.35
63343;BME280;49465;57.664;39.686;2022-07-29T00:59:51;100193.59;;;22.54;64.93
63343;BME280;49465;57.664;39.686;2022-07-29T01:02:43;100188.56;;;22.74;64.80
63343;BME280;49465;57.664;39.686;2022-07-29T01:05:29;100199.75;;;22.77;64.03
63343;BME280;49465;57.664;39.686;2022-07-29T01:08:15;100200.94;;;22.75;64.29
63343;BME280;49465;57.664;39.686;2022-07-29T01:10:55;100200.19;;;22.66;65.10
63343;BME280;49465;57.664;39.686;2022-07-29T01:13:34;100201.53;;;22.62;65.56
63343;BME280;49465;57.664;39.686;2022-07-29T01:16:28;100202.88;;;22.81;63.69
63343;BME280;49465;57.664;39.686;2022-07-29T01:20:03;100198.09;;;22.76;63.57
63343;BME280;49465;57.664;39.686;2022-07-29T01:25:20;100199.81;;;22.69;63.74
63343;BME280;49465;57.664;39.686;2022-07-29T01:31:20;100199.91;;;22.61;63.73
63343;BME280;49465;57.664;39.686;2022-07-29T01:34:09;100200.06;;;22.59;64.22
63343;BME280;49465;57.664;39.686;2022-07-29T01:37:19;100194.38;;;22.62;63.58
63343;BME280;49465;57.664;39.686;2022-07-29T01:39:58;100197.47;;;22.51;64.70
63343;BME280;49465;57.664;39.686;2022-07-29T01:42:43;100191.66;;;22.47;64.14
63343;BME280;49465;57.664;39.686;2022-07-29T01:51:29;100196.69;;;22.42;64.01
63343;BME280;49465;57.664;39.686;2022-07-29T01:54:26;100192.47;;;22.48;63.58
63343;BME280;49465;57.664;39.686;2022-07-29T02:03:03;100202.00;;;22.19;65.92
63343;BME280;49465;57.664;39.686;2022-07-29T02:05:52;100204.13;;;22.24;65.33
63343;BME280;49465;57.664;39.686;2022-07-29T02:08:38;100203.28;;;22.31;64.66
63343;BME280;49465;57.664;39.686;2022-07-29T02:11:19;100204.84;;;22.18;64.73
63343;BME280;49465;57.664;39.686;2022-07-29T02:13:55;100203.66;;;22.20;65.84
63343;BME280;49465;57.664;39.686;2022-07-29T02:16:30;100206.69;;;22.17;65.17
63343;BME280;49465;57.664;39.686;2022-07-29T02:19:03;100214.13;;;21.99;65.29
63343;BME280;49465;57.664;39.686;2022-07-29T02:21:43;100215.56;;;22.09;64.97
63343;BME280;49465;57.664;39.686;2022-07-29T02:24:35;100219.56;;;22.14;64.29
63343;BME280;49465;57.664;39.686;2022-07-29T02:27:09;100225.31;;;21.94;65.50
63343;BME280;49465;57.664;39.686;2022-07-29T02:29:49;100220.31;;;21.91;66.18
63343;BME280;49465;57.664;39.686;2022-07-29T02:32:20;100223.56;;;21.78;65.49
63343;BME280;49465;57.664;39.686;2022-07-29T02:38:08;100220.69;;;21.88;64.89
63343;BME280;49465;57.664;39.686;2022-07-29T02:41:29;100220.25;;;21.76;64.63
63343;BME280;49465;57.664;39.686;2022-07-29T02:44:03;100218.47;;;21.60;65.23
63343;BME280;49465;57.664;39.686;2022-07-29T02:47:15;100214.53;;;21.79;64.03
63343;BME280;49465;57.664;39.686;2022-07-29T02:50:02;100216.06;;;21.73;64.86
63343;BME280;49465;57.664;39.686;2022-07-29T02:52:48;100214.66;;;21.55;65.05
63343;BME280;49465;57.664;39.686;2022-07-29T02:58:29;100209.63;;;21.60;64.36
63343;BME280;49465;57.664;39.686;2022-07-29T03:01:24;100209.78;;;21.66;63.88
63343;BME280;49465;57.664;39.686;2022-07-29T03:04:20;100217.97;;;21.57;64.41
63343;BME280;49465;57.664;39.686;2022-07-29T03:07:13;100212.19;;;21.45;65.66
63343;BME280;49465;57.664;39.686;2022-07-29T03:09:45;100209.97;;;21.40;64.43
63343;BME280;49465;57.664;39.686;2022-07-29T03:12:23;100216.84;;;21.26;65.25
63343;BME280;49465;57.664;39.686;2022-07-29T03:15:01;100217.53;;;21.45;64.65
63343;BME280;49465;57.664;39.686;2022-07-29T03:17:37;100224.53;;;21.29;65.46
63343;BME280;49465;57.664;39.686;2022-07-29T03:20:11;100219.22;;;21.21;65.05
63343;BME280;49465;57.664;39.686;2022-07-29T03:22:52;100228.50;;;21.33;64.25
63343;BME280;49465;57.664;39.686;2022-07-29T03:25:34;100227.22;;;21.21;65.28
63343;BME280;49465;57.664;39.686;2022-07-29T03:28:09;100226.53;;;21.11;64.90
63343;BME280;49465;57.664;39.686;2022-07-29T03:31:03;100223.22;;;21.17;63.73
63343;BME280;49465;57.664;39.686;2022-07-29T03:33:55;100229.91;;;21.13;63.99
63343;BME280;49465;57.664;39.686;2022-07-29T03:36:29;100235.41;;;20.87;66.16
63343;BME280;49465;57.664;39.686;2022-07-29T03:39:00;100230.56;;;20.82;65.47
63343;BME280;49465;57.664;39.686;2022-07-29T03:41:32;100240.22;;;20.67;66.07
63343;BME280;49465;57.664;39.686;2022-07-29T03:44:22;100237.56;;;20.83;65.85
63343;BME280;49465;57.664;39.686;2022-07-29T03:46:55;100242.88;;;20.83;64.67
63343;BME280;49465;57.664;39.686;2022-07-29T03:49:44;100232.56;;;20.88;65.35
63343;BME280;49465;57.664;39.686;2022-07-29T03:52:38;100240.88;;;20.85;64.24
63343;BME280;49465;57.664;39.686;2022-07-29T03:55:34;100238.72;;;20.81;64.16
63343;BME280;49465;57.664;39.686;2022-07-29T03:58:07;100241.34;;;20.56;65.50
63343;BME280;49465;57.664;39.686;2022-07-29T04:00:46;100247.72;;;20.63;65.89
63343;BME280;49465;57.664;39.686;2022-07-29T04:03:16;100243.16;;;20.47;66.08
63343;BME280;49465;57.664;39.686;2022-07-29T04:05:56;100243.16;;;20.39;65.60
63343;BME280;49465;57.664;39.686;2022-07-29T04:08:37;100259.28;;;20.38;65.87
63343;BME280;49465;57.664;39.686;2022-07-29T04:11:04;100265.28;;;20.31;66.33
63343;BME280;49465;57.664;39.686;2022-07-29T04:13:36;100263.97;;;20.44;65.98
63343;BME280;49465;57.664;39.686;2022-07-29T04:16:02;100273.09;;;20.33;66.12
63343;BME280;49465;57.664;39.686;2022-07-29T04:18:37;100267.28;;;20.46;66.65
63343;BME280;49465;57.664;39.686;2022-07-29T04:21:04;100268.09;;;20.30;66.25
63343;BME280;49465;57.664;39.686;2022-07-29T04:23:38;100266.75;;;20.26;66.37
63343;BME280;49465;57.664;39.686;2022-07-29T04:26:04;100268.75;;;20.24;66.31
63343;BME280;49465;57.664;39.686;2022-07-29T04:28:36;100273.78;;;20.35;66.36
63343;BME280;49465;57.664;39.686;2022-07-29T04:31:13;100269.44;;;20.34;66.03
63343;BME280;49465;57.664;39.686;2022-07-29T04:33:45;100261.13;;;20.29;65.99
63343;BME280;49465;57.664;39.686;2022-07-29T04:36:16;100274.09;;;20.32;65.68
63343;BME280;49465;57.664;39.686;2022-07-29T04:38:47;100275.91;;;20.31;66.67
63343;BME280;49465;57.664;39.686;2022-07-29T04:41:34;100282.91;;;20.32;65.98
63343;BME280;49465;57.664;39.686;2022-07-29T04:44:04;100281.69;;;20.19;65.80
63343;BME280;49465;57.664;39.686;2022-07-29T04:46:57;100294.41;;;20.41;65.07
63343;BME280;49465;57.664;39.686;2022-07-29T04:49:37;100290.72;;;20.34;65.57
63343;BME280;49465;57.664;39.686;2022-07-29T04:52:25;100281.09;;;20.33;65.44
63343;BME280;49465;57.664;39.686;2022-07-29T04:54:54;100289.72;;;20.27;65.32
63343;BME280;49465;57.664;39.686;2022-07-29T04:57:45;100282.09;;;20.40;65.52
63343;BME280;49465;57.664;39.686;2022-07-29T05:00:41;100285.25;;;20.44;64.75
63343;BME280;49465;57.664;39.686;2022-07-29T05:03:11;100275.03;;;20.23;65.37
63343;BME280;49465;57.664;39.686;2022-07-29T05:06:13;100274.25;;;20.30;65.53
63343;BME280;49465;57.664;39.686;2022-07-29T05:08:58;100278.59;;;20.31;66.10
63343;BME280;49465;57.664;39.686;2022-07-29T05:14:13;100284.72;;;20.24;65.53
63343;BME280;49465;57.664;39.686;2022-07-29T05:16:51;100287.59;;;20.39;64.86
63343;BME280;49465;57.664;39.686;2022-07-29T05:19:46;100282.13;;;20.48;65.72
63343;BME280;49465;57.664;39.686;2022-07-29T05:22:27;100279.47;;;20.48;64.53
63343;BME280;49465;57.664;39.686;2022-07-29T05:24:53;100288.88;;;20.26;65.68
63343;BME280;49465;57.664;39.686;2022-07-29T05:27:26;100283.75;;;20.33;65.34
63343;BME280;49465;57.664;39.686;2022-07-29T05:29:58;100284.94;;;20.47;65.04
63343;BME280;49465;57.664;39.686;2022-07-29T05:32:28;100289.91;;;20.42;64.98
63343;BME280;49465;57.664;39.686;2022-07-29T05:35:10;100286.34;;;20.67;64.46
63343;BME280;49465;57.664;39.686;2022-07-29T05:37:50;100285.00;;;20.63;65.35
63343;BME280;49465;57.664;39.686;2022-07-29T05:40:26;100279.94;;;20.52;65.18
63343;BME280;49465;57.664;39.686;2022-07-29T05:43:07;100281.00;;;20.76;64.41
63343;BME280;49465;57.664;39.686;2022-07-29T05:45:39;100286.53;;;20.74;65.01
63343;BME280;49465;57.664;39.686;2022-07-29T05:48:27;100271.72;;;20.88;64.58
63343;BME280;49465;57.664;39.686;2022-07-29T05:50:58;100270.03;;;20.70;64.31
63343;BME280;49465;57.664;39.686;2022-07-29T05:53:38;100270.38;;;20.84;64.75
63343;BME280;49465;57.664;39.686;2022-07-29T05:56:19;100271.19;;;20.92;64.55
63343;BME280;49465;57.664;39.686;2022-07-29T05:58:53;100282.69;;;20.93;64.55
63343;BME280;49465;57.664;39.686;2022-07-29T06:01:33;100284.88;;;21.06;64.34
63343;BME280;49465;57.664;39.686;2022-07-29T06:04:20;100291.84;;;21.23;63.55
63343;BME280;49465;57.664;39.686;2022-07-29T06:06:52;100291.19;;;21.21;63.30
63343;BME280;49465;57.664;39.686;2022-07-29T06:09:33;100292.00;;;21.30;62.77
63343;BME280;49465;57.664;39.686;2022-07-29T06:12:05;100288.84;;;21.26;63.54
63343;BME280;49465;57.664;39.686;2022-07-29T06:15:07;100290.53;;;21.19;63.23
63343;BME280;49465;57.664;39.686;2022-07-29T06:18:01;100303.16;;;21.33;63.23
63343;BME280;49465;57.664;39.686;2022-07-29T06:20:38;100289.19;;;21.23;62.91
63343;BME280;49465;57.664;39.686;2022-07-29T06:23:12;100298.50;;;21.36;62.67
63343;BME280;49465;57.664;39.686;2022-07-29T06:25:52;100302.88;;;21.45;62.55
63343;BME280;49465;57.664;39.686;2022-07-29T06:28:40;100298.00;;;21.57;61.94
63343;BME280;49465;57.664;39.686;2022-07-29T06:31:20;100306.97;;;21.64;61.94
63343;BME280;49465;57.664;39.686;2022-07-29T06:33:56;100300.19;;;21.53;62.21
63343;BME280;49465;57.664;39.686;2022-07-29T06:36:44;100308.59;;;21.81;62.27
63343;BME280;49465;57.664;39.686;2022-07-29T06:40:00;100303.56;;;21.95;61.18
63343;BME280;49465;57.664;39.686;2022-07-29T06:42:59;100318.25;;;21.90;61.29
63343;BME280;49465;57.664;39.686;2022-07-29T06:45:43;100308.34;;;22.07;61.06
63343;BME280;49465;57.664;39.686;2022-07-29T06:48:17;100303.78;;;22.16;61.24
63343;BME280;49465;57.664;39.686;2022-07-29T06:50:56;100307.78;;;22.28;60.94
63343;BME280;49465;57.664;39.686;2022-07-29T06:56:36;100319.47;;;22.59;60.05
63343;BME280;49465;57.664;39.686;2022-07-29T06:59:07;100309.13;;;22.56;59.73
63343;BME280;49465;57.664;39.686;2022-07-29T07:01:54;100321.19;;;22.75;59.16
63343;BME280;49465;57.664;39.686;2022-07-29T07:04:47;100319.72;;;22.95;58.63
63343;BME280;49465;57.664;39.686;2022-07-29T07:07:20;100320.84;;;23.01;58.37
63343;BME280;49465;57.664;39.686;2022-07-29T07:09:59;100323.19;;;23.04;58.01
63343;BME280;49465;57.664;39.686;2022-07-29T07:15:44;100325.94;;;23.34;57.34
63343;BME280;49465;57.664;39.686;2022-07-29T07:18:17;100326.00;;;23.48;57.50
63343;BME280;49465;57.664;39.686;2022-07-29T07:20:55;100328.88;;;23.77;56.71
63343;BME280;49465;57.664;39.686;2022-07-29T07:23:59;100335.00;;;24.00;56.11
63343;BME280;49465;57.664;39.686;2022-07-29T07:26:50;100327.13;;;24.14;55.80
63343;BME280;49465;57.664;39.686;2022-07-29T07:29:37;100334.41;;;24.20;54.64
63343;BME280;49465;57.664;39.686;2022-07-29T07:32:30;100331.16;;;24.39;54.81
63343;BME280;49465;57.664;39.686;2022-07-29T07:35:10;100337.91;;;24.35;54.31
63343;BME280;49465;57.664;39.686;2022-07-29T07:37:59;100339.63;;;24.58;51.90
63343;BME280;49465;57.664;39.686;2022-07-29T07:40:56;100331.69;;;24.64;52.95
63343;BME280;49465;57.664;39.686;2022-07-29T07:43:28;100343.88;;;24.67;50.86
63343;BME280;49465;57.664;39.686;2022-07-29T07:46:38;100337.69;;;24.88;52.46
63343;BME280;49465;57.664;39.686;2022-07-29T07:49:36;100332.25;;;25.03;52.54
63343;BME280;49465;57.664;39.686;2022-07-29T07:53:08;100322.22;;;25.12;51.38
63343;BME280;49465;57.664;39.686;2022-07-29T07:55:30;100324.09;;;25.33;49.58
63343;BME280;49465;57.664;39.686;2022-07-29T07:58:38;100337.47;;;25.54;51.10
63343;BME280;49465;57.664;39.686;2022-07-29T08:01:35;100331.88;;;25.56;49.94
63343;BME280;49465;57.664;39.686;2022-07-29T08:07:26;100341.59;;;25.57;48.52
63343;BME280;49465;57.664;39.686;2022-07-29T08:10:06;100336.25;;;25.63;47.39
63343;BME280;49465;57.664;39.686;2022-07-29T08:13:03;100328.56;;;25.89;48.54
63343;BME280;49465;57.664;39.686;2022-07-29T08:16:07;100326.91;;;26.22;48.67
63343;BME280;49465;57.664;39.686;2022-07-29T08:18:47;100328.13;;;26.20;47.12
63343;BME280;49465;57.664;39.686;2022-07-29T08:21:35;100322.00;;;26.33;45.84
63343;BME280;49465;57.664;39.686;2022-07-29T08:24:15;100322.44;;;26.50;46.55
63343;BME280;49465;57.664;39.686;2022-07-29T08:27:29;100319.88;;;26.76;46.52
63343;BME280;49465;57.664;39.686;2022-07-29T08:30:17;100318.66;;;26.86;44.16
63343;BME280;49465;57.664;39.686;2022-07-29T08:33:06;100325.25;;;26.76;45.07
63343;BME280;49465;57.664;39.686;2022-07-29T08:35:47;100321.97;;;26.88;44.77
63343;BME280;49465;57.664;39.686;2022-07-29T08:38:45;100312.88;;;26.95;43.65
63343;BME280;49465;57.664;39.686;2022-07-29T08:41:39;100315.53;;;27.02;43.85
63343;BME280;49465;57.664;39.686;2022-07-29T08:44:50;100321.53;;;27.11;43.01
63343;BME280;49465;57.664;39.686;2022-07-29T08:47:45;100321.59;;;27.31;44.76
63343;BME280;49465;57.664;39.686;2022-07-29T08:50:39;100322.00;;;27.28;43.49
63343;BME280;49465;57.664;39.686;2022-07-29T08:53:18;100317.84;;;27.12;42.32
63343;BME280;49465;57.664;39.686;2022-07-29T08:56:22;100331.53;;;27.37;43.45
63343;BME280;49465;57.664;39.686;2022-07-29T08:59:13;100331.53;;;27.50;43.66
63343;BME280;49465;57.664;39.686;2022-07-29T09:02:00;100326.13;;;27.57;43.34
63343;BME280;49465;57.664;39.686;2022-07-29T09:07:51;100337.94;;;27.36;41.77
63343;BME280;49465;57.664;39.686;2022-07-29T09:10:43;100339.16;;;27.53;41.89
63343;BME280;49465;57.664;39.686;2022-07-29T09:16:43;100344.56;;;27.60;42.26
63343;BME280;49465;57.664;39.686;2022-07-29T09:19:36;100336.84;;;27.84;42.26
63343;BME280;49465;57.664;39.686;2022-07-29T09:22:28;100346.78;;;28.03;40.75
63343;BME280;49465;57.664;39.686;2022-07-29T09:25:52;100338.66;;;28.10;41.55
63343;BME280;49465;57.664;39.686;2022-07-29T09:28:09;100341.91;;;28.25;41.72
63343;BME280;49465;57.664;39.686;2022-07-29T09:30:57;100335.44;;;28.33;40.90
63343;BME280;49465;57.664;39.686;2022-07-29T09:33:58;100345.47;;;28.19;40.57
63343;BME280;49465;57.664;39.686;2022-07-29T09:36:27;100342.44;;;27.95;39.59
63343;BME280;49465;57.664;39.686;2022-07-29T09:39:11;100342.53;;;28.20;41.53
63343;BME280;49465;57.664;39.686;2022-07-29T09:41:59;100342.97;;;28.11;40.58
63343;BME280;49465;57.664;39.686;2022-07-29T09:44:49;100349.38;;;28.23;40.76
63343;BME280;49465;57.664;39.686;2022-07-29T09:47:21;100345.66;;;28.17;39.91
63343;BME280;49465;57.664;39.686;2022-07-29T09:50:15;100349.38;;;28.23;41.13
63343;BME280;49465;57.664;39.686;2022-07-29T09:53:17;100348.31;;;28.31;41.02
63343;BME280;49465;57.664;39.686;2022-07-29T09:56:12;100342.88;;;28.37;40.66
63343;BME280;49465;57.664;39.686;2022-07-29T09:59:15;100360.66;;;28.58;41.07
63343;BME280;49465;57.664;39.686;2022-07-29T10:01:58;100353.56;;;28.64;40.41
63343;BME280;49465;57.664;39.686;2022-07-29T10:04:40;100355.81;;;28.74;39.60
63343;BME280;49465;57.664;39.686;2022-07-29T10:07:07;100352.25;;;28.73;39.00
63343;BME280;49465;57.664;39.686;2022-07-29T10:10:17;100356.75;;;29.18;39.89
63343;BME280;49465;57.664;39.686;2022-07-29T10:13:34;100346.19;;;29.42;39.67
63343;BME280;49465;57.664;39.686;2022-07-29T10:16:16;100342.16;;;29.26;38.35
63343;BME280;49465;57.664;39.686;2022-07-29T10:18:44;100341.00;;;29.40;38.28
63343;BME280;49465;57.664;39.686;2022-07-29T10:21:32;100347.81;;;29.68;39.09
63343;BME280;49465;57.664;39.686;2022-07-29T10:24:23;100348.69;;;29.62;38.20
63343;BME280;49465;57.664;39.686;2022-07-29T10:27:06;100346.50;;;29.52;38.39
63343;BME280;49465;57.664;39.686;2022-07-29T10:29:45;100345.53;;;29.46;38.08
63343;BME280;49465;57.664;39.686;2022-07-29T10:41:18;100354.44;;;29.22;37.95
63343;BME280;49465;57.664;39.686;2022-07-29T10:44:15;100351.75;;;29.22;38.31
63343;BME280;49465;57.664;39.686;2022-07-29T10:46:56;100345.56;;;29.14;38.78
63343;BME280;49465;57.664;39.686;2022-07-29T10:49:34;100356.22;;;29.34;38.95
63343;BME280;49465;57.664;39.686;2022-07-29T10:52:12;100352.63;;;29.41;38.91
63343;BME280;49465;57.664;39.686;2022-07-29T10:54:48;100341.75;;;29.47;38.26
63343;BME280;49465;57.664;39.686;2022-07-29T10:57:25;100343.78;;;29.52;37.25
63343;BME280;49465;57.664;39.686;2022-07-29T11:05:18;100345.38;;;29.60;38.60
63343;BME280;49465;57.664;39.686;2022-07-29T11:10:42;100338.94;;;29.61;36.15
63343;BME280;49465;57.664;39.686;2022-07-29T11:16:19;100348.06;;;29.60;36.07
63343;BME280;49465;57.664;39.686;2022-07-29T11:21:39;100351.69;;;29.53;36.47
63343;BME280;49465;57.664;39.686;2022-07-29T11:24:23;100353.88;;;29.63;35.54
63343;BME280;49465;57.664;39.686;2022-07-29T11:29:52;100354.09;;;29.62;36.57
63343;BME280;49465;57.664;39.686;2022-07-29T11:32:40;100355.44;;;29.52;36.09
63343;BME280;49465;57.664;39.686;2022-07-29T11:35:20;100361.72;;;29.46;35.86
63343;BME280;49465;57.664;39.686;2022-07-29T11:38:26;100360.03;;;29.70;36.31
63343;BME280;49465;57.664;39.686;2022-07-29T11:43:56;100360.38;;;29.81;33.50
63343;BME280;49465;57.664;39.686;2022-07-29T11:49:38;100361.50;;;30.10;35.20
63343;BME280;49465;57.664;39.686;2022-07-29T11:52:18;100373.75;;;30.12;34.54
63343;BME280;49465;57.664;39.686;2022-07-29T11:54:54;100365.25;;;30.27;33.96
63343;BME280;49465;57.664;39.686;2022-07-29T11:57:44;100366.16;;;30.40;34.05
63343;BME280;49465;57.664;39.686;2022-07-29T12:00:50;100368.41;;;30.73;34.47
63343;BME280;49465;57.664;39.686;2022-07-29T12:03:28;100363.97;;;30.79;33.72
63343;BME280;49465;57.664;39.686;2022-07-29T12:06:56;100366.53;;;30.92;34.30
63343;BME280;49465;57.664;39.686;2022-07-29T12:09:30;100361.47;;;30.96;32.21
63343;BME280;49465;57.664;39.686;2022-07-29T12:12:29;100360.31;;;31.03;33.22
63343;BME280;49465;57.664;39.686;2022-07-29T12:15:19;100359.16;;;31.11;34.46
63343;BME280;49465;57.664;39.686;2022-07-29T12:18:16;100360.66;;;31.07;33.60
63343;BME280;49465;57.664;39.686;2022-07-29T12:20:56;100359.84;;;31.06;33.46
63343;BME280;49465;57.664;39.686;2022-07-29T12:23:52;100364.59;;;31.34;33.84
63343;BME280;49465;57.664;39.686;2022-07-29T12:26:33;100369.16;;;31.34;33.44
63343;BME280;49465;57.664;39.686;2022-07-29T12:29:26;100364.88;;;31.57;33.87
63343;BME280;49465;57.664;39.686;2022-07-29T12:31:56;100366.28;;;31.47;31.75
63343;BME280;49465;57.664;39.686;2022-07-29T12:38:01;100368.97;;;31.71;33.12
63343;BME280;49465;57.664;39.686;2022-07-29T12:47:08;100363.22;;;31.56;33.54
63343;BME280;49465;57.664;39.686;2022-07-29T12:52:42;100357.56;;;31.57;32.48
63343;BME280;49465;57.664;39.686;2022-07-29T12:55:15;100361.56;;;31.55;30.58
63343;BME280;49465;57.664;39.686;2022-07-29T12:57:55;100367.00;;;31.55;32.44
63343;BME280;49465;57.664;39.686;2022-07-29T13:00:29;100364.28;;;31.55;31.28
63343;BME280;49465;57.664;39.686;2022-07-29T13:03:09;100371.00;;;31.52;32.09
63343;BME280;49465;57.664;39.686;2022-07-29T13:05:55;100367.22;;;31.65;32.34
63343;BME280;49465;57.664;39.686;2022-07-29T13:09:08;100375.94;;;31.67;32.42
63343;BME280;49465;57.664;39.686;2022-07-29T13:11:52;100378.28;;;31.51;32.29
63343;BME280;49465;57.664;39.686;2022-07-29T13:14:41;100377.69;;;31.61;32.29
63343;BME280;49465;57.664;39.686;2022-07-29T13:17:32;100376.66;;;31.50;32.38
63343;BME280;49465;57.664;39.686;2022-07-29T13:20:23;100383.25;;;31.55;32.20
63343;BME280;49465;57.664;39.686;2022-07-29T13:22:56;100386.41;;;31.51;32.50
63343;BME280;49465;57.664;39.686;2022-07-29T13:25:28;100393.34;;;31.95;33.20
63343;BME280;49465;57.664;39.686;2022-07-29T13:28:28;100391.59;;;31.65;32.44
63343;BME280;49465;57.664;39.686;2022-07-29T13:31:23;100391.75;;;31.70;32.49
63343;BME280;49465;57.664;39.686;2022-07-29T13:34:04;100386.19;;;31.65;33.25
63343;BME280;49465;57.664;39.686;2022-07-29T13:36:30;100377.88;;;31.36;32.12
63343;BME280;49465;57.664;39.686;2022-07-29T13:39:19;100374.59;;;31.34;31.94
63343;BME280;49465;57.664;39.686;2022-07-29T13:42:06;100383.81;;;31.45;31.72
63343;BME280;49465;57.664;39.686;2022-07-29T13:44:51;100387.59;;;31.56;32.74
63343;BME280;49465;57.664;39.686;2022-07-29T13:47:25;100383.44;;;31.41;32.48
63343;BME280;49465;57.664;39.686;2022-07-29T13:50:07;100386.94;;;31.30;32.86
63343;BME280;49465;57.664;39.686;2022-07-29T13:52:51;100384.47;;;31.28;33.63
63343;BME280;49465;57.664;39.686;2022-07-29T13:55:26;100375.44;;;31.23;32.37
63343;BME280;49465;57.664;39.686;2022-07-29T13:58:00;100381.66;;;31.35;32.54
63343;BME280;49465;57.664;39.686;2022-07-29T14:00:47;100382.13;;;31.44;32.74
63343;BME280;49465;57.664;39.686;2022-07-29T14:03:24;100376.13;;;31.30;32.61
63343;BME280;49465;57.664;39.686;2022-07-29T14:05:58;100380.00;;;31.22;32.84
63343;BME280;49465;57.664;39.686;2022-07-29T14:08:48;100380.69;;;31.18;33.37
63343;BME280;49465;57.664;39.686;2022-07-29T14:11:35;100381.50;;;31.18;33.92
63343;BME280;49465;57.664;39.686;2022-07-29T14:14:25;100372.00;;;31.27;33.94
63343;BME280;49465;57.664;39.686;2022-07-29T14:16:58;100368.19;;;31.17;34.16
63343;BME280;49465;57.664;39.686;2022-07-29T14:19:32;100372.09;;;31.09;32.24
63343;BME280;49465;57.664;39.686;2022-07-29T14:22:13;100370.13;;;31.28;32.74
63343;BME280;49465;57.664;39.686;2022-07-29T14:24:44;100377.97;;;31.06;32.30
63343;BME280;49465;57.664;39.686;2022-07-29T14:27:18;100375.97;;;31.01;31.64
63343;BME280;49465;57.664;39.686;2022-07-29T14:29:45;100372.91;;;30.79;31.79
63343;BME280;49465;57.664;39.686;2022-07-29T14:32:11;100373.97;;;30.78;32.70
63343;BME280;49465;57.664;39.686;2022-07-29T14:34:41;100369.38;;;30.79;32.66
63343;BME280;49465;57.664;39.686;2022-07-29T14:37:08;100376.22;;;30.81;32.60
63343;BME280;49465;57.664;39.686;2022-07-29T14:39:35;100372.59;;;30.87;32.66
63343;BME280;49465;57.664;39.686;2022-07-29T14:42:29;100377.94;;;30.94;31.54
63343;BME280;49465;57.664;39.686;2022-07-29T14:44:57;100373.50;;;31.00;31.83
63343;BME280;49465;57.664;39.686;2022-07-29T14:47:31;100367.38;;;31.04;32.13
63343;BME280;49465;57.664;39.686;2022-07-29T14:50:04;100379.94;;;30.99;32.02
63343;BME280;49465;57.664;39.686;2022-07-29T14:52:31;100379.47;;;30.90;31.71
63343;BME280;49465;57.664;39.686;2022-07-29T14:54:57;100385.94;;;30.70;31.53
63343;BME280;49465;57.664;39.686;2022-07-29T14:57:27;100390.63;;;30.63;31.82
63343;BME280;49465;57.664;39.686;2022-07-29T14:59:56;100387.91;;;30.63;32.53
63343;BME280;49465;57.664;39.686;2022-07-29T15:02:22;100384.25;;;30.58;32.17
63343;BME280;49465;57.664;39.686;2022-07-29T15:04:49;100389.06;;;30.55;32.31
63343;BME280;49465;57.664;39.686;2022-07-29T15:07:19;100394.63;;;30.61;32.11
63343;BME280;49465;57.664;39.686;2022-07-29T15:09:47;100394.56;;;30.49;32.21
63343;BME280;49465;57.664;39.686;2022-07-29T15:12:14;100396.50;;;30.42;32.53
63343;BME280;49465;57.664;39.686;2022-07-29T15:14:45;100401.09;;;30.41;33.02
63343;BME280;49465;57.664;39.686;2022-07-29T15:17:18;100388.03;;;30.38;32.38
63343;BME280;49465;57.664;39.686;2022-07-29T15:19:46;100389.22;;;30.42;32.86
63343;BME280;49465;57.664;39.686;2022-07-29T15:22:17;100394.63;;;30.42;32.53
63343;BME280;49465;57.664;39.686;2022-07-29T15:24:57;100390.72;;;30.57;33.06
63343;BME280;49465;57.664;39.686;2022-07-29T15:27:26;100395.00;;;30.46;33.21
63343;BME280;49465;57.664;39.686;2022-07-29T15:29:58;100382.97;;;30.60;33.05